Time,TemperatureF,DewpointF,PressureIn,WindDirection,WindDirectionDegrees,WindSpeedMPH,WindSpeedGustMPH,Humidity,HourlyPrecipIn,Conditions,Clouds,dailyrainin,SolarRadiationWatts/m^2,SoftwareType,DateUTC
2013-05-26 00:00:00,53.6,16.7,30.16,NW,315,10.0,17.0,23,0.00,,,0.00,0,WeatherCatV1.15B25,2013-05-26 06:00:00,
2013-05-26 00:05:00,52.8,18.0,30.16,WNW,292,12.0,19.0,25,0.00,,,0.00,0,WeatherCatV1.15B25,2013-05-26 06:05:00,
2013-05-26 00:10:00,52.8,18.0,30.16,WNW,292,12.0,19.0,25,0.00,,,0.00,0,WeatherCatV1.15B25,2013-05-26 06:10:00,
2013-05-26 00:15:00,52.8,18.0,30.16,WNW,292,12.0,19.0,25,0.00,,,0.00,0,WeatherCatV1.15B25,2013-05-26 06:15:00,
2013-05-26 00:20:00,52.3,17.5,30.16,WNW,292,12.0,18.0,25,0.00,,,0.00,0,WeatherCatV1.15B25,2013-05-26 06:20:00,
2013-05-26 00:25:00,52.3,17.5,30.16,WNW,292,12.0,18.0,25,0.00,,,0.00,0,WeatherCatV1.15B25,2013-05-26 06:25:00,
2013-05-26 00:30:00,52.3,17.5,30.16,WNW,292,12.0,18.0,25,0.00,,,0.00,0,WeatherCatV1.15B25,2013-05-26 06:30:00,
2013-05-26 00:35:00,52.0,17.3,30.16,WNW,292,12.0,18.0,25,0.00,,,0.00,0,WeatherCatV1.15B25,2013-05-26 06:35:00,
2013-05-26 00:40:00,52.0,17.3,30.16,WNW,292,12.0,18.0,25,0.00,,,0.00,0,WeatherCatV1.15B25,2013-05-26 06:40:00,
2013-05-26 00:45:00,52.0,17.3,30.16,WNW,292,12.0,18.0,25,0.00,,,0.00,0,WeatherCatV1.15B25,2013-05-26 06:45:00,
2013-05-26 00:50:00,52.0,18.2,30.15,WNW,292,10.0,17.0,26,0.00,,,0.00,0,WeatherCatV1.15B25,2013-05-26 06:50:00,
2013-05-26 00:55:00,52.0,18.2,30.15,WNW,292,10.0,17.0,26,0.00,,,0.00,0,WeatherCatV1.15B25,2013-05-26 06:55:00,
2013-05-26 01:00:00,52.0,18.2,30.15,WNW,292,10.0,17.0,26,0.00,,,0.00,0,WeatherCatV1.15B25,2013-05-26 07:00:00,
2013-05-26 01:05:00,51.4,17.7,30.15,WNW,292,12.0,18.0,26,0.00,,,0.00,0,WeatherCatV1.15B25,2013-05-26 07:05:00,
2013-05-26 01:10:00,51.4,17.7,30.15,WNW,292,12.0,18.0,26,0.00,,,0.00,0,WeatherCatV1.15B25,2013-05-26 07:10:00,
2013-05-26 01:15:00,51.4,17.7,30.15,WNW,292,12.0,18.0,26,0.00,,,0.00,0,WeatherCatV1.15B25,2013-05-26 07:15:00,
2013-05-26 01:20:00,51.0,18.2,30.15,WNW,292,13.0,18.0,27,0.00,,,0.00,0,WeatherCatV1.15B25,2013-05-26 07:20:00,
2013-05-26 01:25:00,51.0,18.2,30.15,WNW,292,13.0,18.0,27,0.00,,,0.00,0,WeatherCatV1.15B25,2013-05-26 07:25:00,
2013-05-26 01:30:00,50.7,18.0,30.14,WNW,292,13.0,18.0,27,0.00,,,0.00,0,WeatherCatV1.15B25,2013-05-26 07:30:00,
2013-05-26 01:35:00,50.7,18.0,30.14,WNW,292,13.0,18.0,27,0.00,,,0.00,0,WeatherCatV1.15B25,2013-05-26 07:35:00,
2013-05-26 01:40:00,50.7,18.0,30.14,WNW,292,13.0,18.0,27,0.00,,,0.00,0,WeatherCatV1.15B25,2013-05-26 07:40:00,
2013-05-26 01:45:00,50.4,18.5,30.14,WNW,292,11.0,17.0,28,0.00,,,0.00,0,WeatherCatV1.15B25,2013-05-26 07:45:00,
2013-05-26 01:50:00,50.4,18.5,30.14,WNW,292,11.0,17.0,28,0.00,,,0.00,0,WeatherCatV1.15B25,2013-05-26 07:50:00,
2013-05-26 01:55:00,50.4,18.5,30.14,WNW,292,11.0,17.0,28,0.00,,,0.00,0,WeatherCatV1.15B25,2013-05-26 07:55:00,
2013-05-26 02:00:00,50.4,18.5,30.14,WNW,292,10.0,16.0,28,0.00,,,0.00,0,WeatherCatV1.15B25,2013-05-26 08:00:00,
2013-05-26 02:05:00,50.4,18.5,30.14,WNW,292,10.0,16.0,28,0.00,,,0.00,0,WeatherCatV1.15B25,2013-05-26 08:05:00,
2013-05-26 02:10:00,50.4,18.5,30.14,WNW,292,10.0,16.0,28,0.00,,,0.00,0,WeatherCatV1.15B25,2013-05-26 08:10:00,
2013-05-26 02:15:00,50.4,18.5,30.14,WNW,292,10.0,16.0,28,0.00,,,0.00,0,WeatherCatV1.15B25,2013-05-26 08:15:00,
2013-05-26 02:20:00,50.2,18.4,30.13,WNW,292,10.0,17.0,28,0.00,,,0.00,0,WeatherCatV1.15B25,2013-05-26 08:20:00,
2013-05-26 02:25:00,50.2,18.4,30.13,WNW,292,10.0,17.0,28,0.00,,,0.00,0,WeatherCatV1.15B25,2013-05-26 08:25:00,
2013-05-26 02:30:00,50.2,18.4,30.13,WNW,292,10.0,17.0,28,0.00,,,0.00,0,WeatherCatV1.15B25,2013-05-26 08:30:00,
2013-05-26 02:35:00,50.1,18.3,30.14,WNW,292,12.0,18.0,28,0.00,,,0.00,0,WeatherCatV1.15B25,2013-05-26 08:35:00,
2013-05-26 02:40:00,50.1,18.3,30.14,WNW,292,12.0,18.0,28,0.00,,,0.00,0,WeatherCatV1.15B25,2013-05-26 08:40:00,
2013-05-26 02:45:00,50.1,18.3,30.14,WNW,292,12.0,18.0,28,0.00,,,0.00,0,WeatherCatV1.15B25,2013-05-26 08:45:00,
2013-05-26 02:50:00,48.3,18.3,30.14,NW,315,2.0,8.0,30,0.00,,,0.00,0,WeatherCatV1.15B25,2013-05-26 08:50:00,
2013-05-26 02:55:00,48.3,18.3,30.14,NW,315,2.0,8.0,30,0.00,,,0.00,0,WeatherCatV1.15B25,2013-05-26 08:55:00,
2013-05-26 03:00:00,48.3,18.3,30.14,NW,315,2.0,8.0,30,0.00,,,0.00,0,WeatherCatV1.15B25,2013-05-26 09:00:00,
2013-05-26 03:05:00,46.2,18.0,30.14,NW,315,3.0,7.0,32,0.00,,,0.00,0,WeatherCatV1.15B25,2013-05-26 09:05:00,
2013-05-26 03:10:00,46.2,18.0,30.14,NW,315,3.0,7.0,32,0.00,,,0.00,0,WeatherCatV1.15B25,2013-05-26 09:10:00,
2013-05-26 03:15:00,46.2,18.0,30.14,NW,315,3.0,7.0,32,0.00,,,0.00,0,WeatherCatV1.15B25,2013-05-26 09:15:00,
2013-05-26 03:20:00,45.2,18.5,30.14,NW,315,2.0,6.0,34,0.00,,,0.00,0,WeatherCatV1.15B25,2013-05-26 09:20:00,
2013-05-26 03:25:00,45.2,18.5,30.14,NW,315,2.0,6.0,34,0.00,,,0.00,0,WeatherCatV1.15B25,2013-05-26 09:25:00,
2013-05-26 03:30:00,45.2,18.5,30.14,NW,315,2.0,6.0,34,0.00,,,0.00,0,WeatherCatV1.15B25,2013-05-26 09:30:00,
2013-05-26 03:35:00,44.2,19.6,30.14,NW,315,0.0,3.0,37,0.00,,,0.00,0,WeatherCatV1.15B25,2013-05-26 09:35:00,
2013-05-26 03:40:00,44.2,19.6,30.14,NW,315,0.0,3.0,37,0.00,,,0.00,0,WeatherCatV1.15B25,2013-05-26 09:40:00,
2013-05-26 03:45:00,44.2,19.6,30.14,NW,315,0.0,3.0,37,0.00,,,0.00,0,WeatherCatV1.15B25,2013-05-26 09:45:00,
2013-05-26 03:50:00,43.1,19.2,30.14,NW,315,0.0,3.0,38,0.00,,,0.00,0,WeatherCatV1.15B25,2013-05-26 09:50:00,
2013-05-26 03:55:00,43.1,19.2,30.14,NW,315,0.0,3.0,38,0.00,,,0.00,0,WeatherCatV1.15B25,2013-05-26 09:55:00,
2013-05-26 04:00:00,43.1,19.2,30.14,NW,315,0.0,3.0,38,0.00,,,0.00,0,WeatherCatV1.15B25,2013-05-26 10:00:00,
2013-05-26 04:05:00,41.9,19.4,30.14,NW,315,0.0,5.0,40,0.00,,,0.00,0,WeatherCatV1.15B25,2013-05-26 10:05:00,
2013-05-26 04:10:00,41.9,19.4,30.14,NW,315,0.0,5.0,40,0.00,,,0.00,0,WeatherCatV1.15B25,2013-05-26 10:10:00,
2013-05-26 04:15:00,41.9,19.4,30.14,NW,315,0.0,5.0,40,0.00,,,0.00,0,WeatherCatV1.15B25,2013-05-26 10:15:00,
2013-05-26 04:20:00,41.8,19.3,30.15,NW,315,0.0,3.0,40,0.00,,,0.00,0,WeatherCatV1.15B25,2013-05-26 10:20:00,
2013-05-26 04:25:00,41.8,19.3,30.15,NW,315,0.0,3.0,40,0.00,,,0.00,0,WeatherCatV1.15B25,2013-05-26 10:25:00,
2013-05-26 04:30:00,41.8,19.3,30.15,NW,315,0.0,3.0,40,0.00,,,0.00,0,WeatherCatV1.15B25,2013-05-26 10:30:00,
2013-05-26 04:35:00,41.1,19.2,30.15,NW,315,0.0,3.0,41,0.00,,,0.00,0,WeatherCatV1.15B25,2013-05-26 10:35:00,
2013-05-26 04:40:00,41.1,19.2,30.15,NW,315,0.0,3.0,41,0.00,,,0.00,0,WeatherCatV1.15B25,2013-05-26 10:40:00,
2013-05-26 04:45:00,41.1,19.2,30.15,NW,315,0.0,3.0,41,0.00,,,0.00,0,WeatherCatV1.15B25,2013-05-26 10:45:00,
2013-05-26 04:50:00,40.2,19.5,30.15,NW,315,1.0,3.0,43,0.00,,,0.00,0,WeatherCatV1.15B25,2013-05-26 10:50:00,
2013-05-26 04:55:00,40.2,19.5,30.15,NW,315,1.0,3.0,43,0.00,,,0.00,0,WeatherCatV1.15B25,2013-05-26 10:55:00,
2013-05-26 05:07:00,40.2,19.5,30.15,NW,315,1.0,3.0,43,0.00,,,0.00,0,WeatherCatV1.15B25,2013-05-26 11:07:00,
2013-05-26 05:12:00,39.8,19.1,30.15,NW,326,5.0,5.0,43,0.00,,,0.00,0,WeatherCatV1.15B25,2013-05-26 11:12:00,
2013-05-26 05:17:00,39.3,19.2,30.15,NW,326,0.0,0.0,44,0.00,,,0.00,0,WeatherCatV1.15B25,2013-05-26 11:17:00,
2013-05-26 05:22:00,38.9,18.9,30.15,NW,326,0.0,2.0,44,0.00,,,0.00,0,WeatherCatV1.15B25,2013-05-26 11:22:00,
2013-05-26 05:27:00,38.8,18.2,30.15,NW,326,2.0,5.0,43,0.00,,,0.00,0,WeatherCatV1.15B25,2013-05-26 11:27:00,
2013-05-26 05:32:00,38.8,18.8,30.15,NW,326,0.0,0.0,44,0.00,,,0.00,0,WeatherCatV1.15B25,2013-05-26 11:32:00,
2013-05-26 05:37:00,38.5,18.0,30.15,NW,326,0.0,0.0,43,0.00,,,0.00,0,WeatherCatV1.15B25,2013-05-26 11:37:00,
2013-05-26 05:42:00,38.5,17.4,30.15,NW,326,1.0,3.0,42,0.00,,,0.00,0,WeatherCatV1.15B25,2013-05-26 11:42:00,
2013-05-26 05:47:00,39.2,17.5,30.16,NNW,332,5.0,6.0,41,0.00,,,0.00,5,WeatherCatV1.15B25,2013-05-26 11:47:00,
2013-05-26 05:52:00,39.8,17.5,30.16,NNW,333,0.0,0.0,40,0.00,,,0.00,9,WeatherCatV1.15B25,2013-05-26 11:52:00,
2013-05-26 05:57:00,40.3,17.3,30.16,NW,322,6.0,7.0,39,0.00,,,0.00,11,WeatherCatV1.15B25,2013-05-26 11:57:00,
2013-05-26 06:02:00,40.6,17.6,30.16,NW,320,1.0,3.0,39,0.00,,,0.00,12,WeatherCatV1.15B25,2013-05-26 12:02:00,
2013-05-26 06:07:00,40.5,18.1,30.16,NW,312,6.0,6.0,40,0.00,,,0.00,14,WeatherCatV1.15B25,2013-05-26 12:07:00,
2013-05-26 06:12:00,41.5,17.8,30.16,WNW,299,0.0,5.0,38,0.00,,,0.00,23,WeatherCatV1.15B25,2013-05-26 12:12:00,
2013-05-26 06:17:00,41.5,17.2,30.16,North,0,2.0,6.0,37,0.00,,,0.00,25,WeatherCatV1.15B25,2013-05-26 12:17:00,
2013-05-26 06:22:00,41.8,17.5,30.16,North,3,8.0,8.0,37,0.00,,,0.00,25,WeatherCatV1.15B25,2013-05-26 12:22:00,
2013-05-26 06:27:00,42.2,17.2,30.16,North,6,0.0,5.0,36,0.00,,,0.00,26,WeatherCatV1.15B25,2013-05-26 12:27:00,
2013-05-26 06:32:00,42.9,17.2,30.16,NW,320,3.0,11.0,35,0.00,,,0.00,30,WeatherCatV1.15B25,2013-05-26 12:32:00,
2013-05-26 06:37:00,44.2,16.9,30.16,WNW,292,1.0,5.0,33,0.00,,,0.00,35,WeatherCatV1.15B25,2013-05-26 12:37:00,
2013-05-26 06:42:00,44.8,17.5,30.16,WNW,292,0.0,0.0,33,0.00,,,0.00,39,WeatherCatV1.15B25,2013-05-26 12:42:00,
2013-05-26 06:47:00,45.1,17.0,30.16,WNW,292,2.0,3.0,32,0.00,,,0.00,42,WeatherCatV1.15B25,2013-05-26 12:47:00,
2013-05-26 06:52:00,45.7,18.3,30.16,WNW,291,0.0,0.0,33,0.00,,,0.00,199,WeatherCatV1.15B25,2013-05-26 12:52:00,
2013-05-26 06:57:00,46.7,19.1,30.16,WNW,291,1.0,1.0,33,0.00,,,0.00,160,WeatherCatV1.15B25,2013-05-26 12:57:00,
2013-05-26 07:02:00,47.4,19.0,30.16,WNW,292,0.0,0.0,32,0.00,,,0.00,255,WeatherCatV1.15B25,2013-05-26 13:02:00,
2013-05-26 07:07:00,48.5,18.5,30.16,WNW,291,0.0,0.0,30,0.00,,,0.00,289,WeatherCatV1.15B25,2013-05-26 13:07:00,
2013-05-26 07:12:00,50.1,19.9,30.16,WNW,291,0.0,0.0,30,0.00,,,0.00,313,WeatherCatV1.15B25,2013-05-26 13:12:00,
2013-05-26 07:17:00,51.7,19.7,30.15,WNW,291,0.0,0.0,28,0.00,,,0.00,326,WeatherCatV1.15B25,2013-05-26 13:17:00,
2013-05-26 07:22:00,53.1,20.9,30.15,WNW,292,0.0,0.0,28,0.00,,,0.00,340,WeatherCatV1.15B25,2013-05-26 13:22:00,
2013-05-26 07:27:00,54.2,23.5,30.15,WNW,291,0.0,0.0,30,0.00,,,0.00,378,WeatherCatV1.15B25,2013-05-26 13:27:00,
2013-05-26 07:32:00,55.6,21.3,30.15,WNW,291,0.0,0.0,26,0.00,,,0.00,208,WeatherCatV1.15B25,2013-05-26 13:32:00,
2013-05-26 07:37:00,56.5,21.1,30.15,WNW,291,2.0,3.0,25,0.00,,,0.00,336,WeatherCatV1.15B25,2013-05-26 13:37:00,
2013-05-26 07:42:00,56.7,21.3,30.15,SSE,150,6.0,7.0,25,0.00,,,0.00,127,WeatherCatV1.15B25,2013-05-26 13:42:00,
2013-05-26 07:47:00,57.2,20.7,30.16,SE,145,2.0,6.0,24,0.00,,,0.00,176,WeatherCatV1.15B25,2013-05-26 13:47:00,
2013-05-26 07:52:00,57.3,21.8,30.16,SE,140,3.0,6.0,25,0.00,,,0.00,144,WeatherCatV1.15B25,2013-05-26 13:52:00,
2013-05-26 07:57:00,57.6,19.0,30.16,ESE,119,7.0,11.0,22,0.00,,,0.00,194,WeatherCatV1.15B25,2013-05-26 13:57:00,
2013-05-26 08:02:00,58.3,21.7,30.16,East,82,0.0,5.0,24,0.00,,,0.00,479,WeatherCatV1.15B25,2013-05-26 14:02:00,
2013-05-26 08:07:00,59.6,18.5,30.16,East,82,3.0,6.0,20,0.00,,,0.00,378,WeatherCatV1.15B25,2013-05-26 14:07:00,
2013-05-26 08:12:00,59.9,16.3,30.16,ESE,116,7.0,8.0,18,0.00,,,0.00,127,WeatherCatV1.15B25,2013-05-26 14:12:00,
2013-05-26 08:17:00,59.5,18.4,30.15,SE,133,11.0,14.0,20,0.00,,,0.00,443,WeatherCatV1.15B25,2013-05-26 14:17:00,
2013-05-26 08:22:00,60.4,19.2,30.15,SE,140,12.0,12.0,20,0.00,,,0.00,500,WeatherCatV1.15B25,2013-05-26 14:22:00,
2013-05-26 08:27:00,61.0,19.7,30.15,SSE,152,2.0,6.0,20,0.00,,,0.00,531,WeatherCatV1.15B25,2013-05-26 14:27:00,
2013-05-26 08:32:00,61.6,15.0,30.16,SE,141,6.0,14.0,16,0.00,,,0.00,549,WeatherCatV1.15B25,2013-05-26 14:32:00,
2013-05-26 08:37:00,62.1,19.4,30.16,SE,128,4.0,10.0,19,0.00,,,0.00,561,WeatherCatV1.15B25,2013-05-26 14:37:00,
2013-05-26 08:42:00,62.6,18.5,30.16,SE,126,7.0,11.0,18,0.00,,,0.00,556,WeatherCatV1.15B25,2013-05-26 14:42:00,
2013-05-26 08:47:00,62.4,18.3,30.15,SE,127,8.0,13.0,18,0.00,,,0.00,586,WeatherCatV1.15B25,2013-05-26 14:47:00,
2013-05-26 08:52:00,62.4,18.3,30.15,SSE,158,10.0,13.0,18,0.00,,,0.00,602,WeatherCatV1.15B25,2013-05-26 14:52:00,
2013-05-26 08:57:00,62.7,17.3,30.15,SE,131,3.0,17.0,17,0.00,,,0.00,614,WeatherCatV1.15B25,2013-05-26 14:57:00,
2013-05-26 09:02:00,63.2,16.3,30.15,SE,138,16.0,17.0,16,0.00,,,0.00,633,WeatherCatV1.15B25,2013-05-26 15:02:00,
2013-05-26 09:07:00,63.4,15.0,30.15,South,191,5.0,10.0,15,0.00,,,0.00,646,WeatherCatV1.15B25,2013-05-26 15:07:00,
2013-05-26 09:12:00,63.7,18.1,30.15,South,185,3.0,6.0,17,0.00,,,0.00,660,WeatherCatV1.15B25,2013-05-26 15:12:00,
2013-05-26 09:17:00,64.0,13.9,30.15,South,176,11.0,13.0,14,0.00,,,0.00,676,WeatherCatV1.15B25,2013-05-26 15:17:00,
2013-05-26 09:22:00,64.3,18.6,30.15,South,176,8.0,12.0,17,0.00,,,0.00,690,WeatherCatV1.15B25,2013-05-26 15:22:00,
2013-05-26 09:27:00,64.7,12.7,30.15,West,271,15.0,16.0,13,0.00,,,0.00,702,WeatherCatV1.15B25,2013-05-26 15:27:00,
2013-05-26 09:32:00,64.8,12.8,30.15,West,277,11.0,13.0,13,0.00,,,0.00,718,WeatherCatV1.15B25,2013-05-26 15:32:00,
2013-05-26 09:37:00,65.0,14.7,30.15,WSW,258,6.0,6.0,14,0.00,,,0.00,734,WeatherCatV1.15B25,2013-05-26 15:37:00,
2013-05-26 09:42:00,65.2,14.8,30.15,NNW,340,8.0,13.0,14,0.00,,,0.00,744,WeatherCatV1.15B25,2013-05-26 15:42:00,
2013-05-26 09:47:00,65.6,11.6,30.15,NW,320,5.0,11.0,12,0.00,,,0.00,755,WeatherCatV1.15B25,2013-05-26 15:47:00,
2013-05-26 09:52:00,65.6,13.4,30.15,West,272,9.0,19.0,13,0.00,,,0.00,769,WeatherCatV1.15B25,2013-05-26 15:52:00,
2013-05-26 09:57:00,66.0,13.8,30.15,NW,319,10.0,18.0,13,0.00,,,0.00,781,WeatherCatV1.15B25,2013-05-26 15:57:00,
2013-05-26 10:02:00,66.1,12.0,30.15,North,356,0.0,6.0,12,0.00,,,0.00,794,WeatherCatV1.15B25,2013-05-26 16:02:00,
2013-05-26 10:07:00,66.3,15.7,30.15,West,280,10.0,14.0,14,0.00,,,0.00,806,WeatherCatV1.15B25,2013-05-26 16:07:00,
2013-05-26 10:12:00,66.8,14.4,30.15,NW,313,2.0,18.0,13,0.00,,,0.00,815,WeatherCatV1.15B25,2013-05-26 16:12:00,
2013-05-26 10:17:00,66.6,14.2,30.14,WNW,302,8.0,12.0,13,0.00,,,0.00,830,WeatherCatV1.15B25,2013-05-26 16:17:00,
2013-05-26 10:22:00,66.6,14.2,30.14,West,278,5.0,13.0,13,0.00,,,0.00,841,WeatherCatV1.15B25,2013-05-26 16:22:00,
2013-05-26 10:27:00,66.6,14.2,30.14,West,267,10.0,19.0,13,0.00,,,0.00,848,WeatherCatV1.15B25,2013-05-26 16:27:00,
2013-05-26 10:32:00,66.9,14.5,30.14,NW,309,11.0,12.0,13,0.00,,,0.00,862,WeatherCatV1.15B25,2013-05-26 16:32:00,
2013-05-26 10:42:00,67.4,16.6,30.14,NW,308,12.0,13.0,14,0.00,,,0.00,882,WeatherCatV1.15B25,2013-05-26 16:42:00,
2013-05-26 10:47:00,68.4,15.6,30.14,WSW,257,9.0,11.0,13,0.00,,,0.00,894,WeatherCatV1.15B25,2013-05-26 16:47:00,
2013-05-26 10:52:00,68.4,15.6,30.14,North,0,2.0,10.0,13,0.00,,,0.00,904,WeatherCatV1.15B25,2013-05-26 16:52:00,
2013-05-26 10:57:00,69.1,16.2,30.14,WNW,288,8.0,19.0,13,0.00,,,0.00,913,WeatherCatV1.15B25,2013-05-26 16:57:00,
2013-05-26 11:02:00,68.6,15.8,30.14,NW,308,13.0,19.0,13,0.00,,,0.00,920,WeatherCatV1.15B25,2013-05-26 17:02:00,
2013-05-26 11:07:00,68.4,15.6,30.14,NW,308,9.0,16.0,13,0.00,,,0.00,929,WeatherCatV1.15B25,2013-05-26 17:07:00,
2013-05-26 11:12:00,68.9,16.0,30.14,NNW,342,5.0,12.0,13,0.00,,,0.00,938,WeatherCatV1.15B25,2013-05-26 17:12:00,
2013-05-26 11:17:00,69.3,14.5,30.14,WSW,246,3.0,11.0,12,0.00,,,0.00,945,WeatherCatV1.15B25,2013-05-26 17:17:00,
2013-05-26 11:22:00,69.6,16.6,30.14,WNW,292,12.0,13.0,13,0.00,,,0.00,957,WeatherCatV1.15B25,2013-05-26 17:22:00,
2013-05-26 11:27:00,69.8,14.9,30.14,West,267,10.0,11.0,12,0.00,,,0.00,962,WeatherCatV1.15B25,2013-05-26 17:27:00,
2013-05-26 11:32:00,69.6,14.8,30.14,WNW,294,11.0,17.0,12,0.00,,,0.00,964,WeatherCatV1.15B25,2013-05-26 17:32:00,
2013-05-26 11:37:00,69.8,14.9,30.14,WSW,258,16.0,17.0,12,0.00,,,0.00,975,WeatherCatV1.15B25,2013-05-26 17:37:00,
2013-05-26 11:42:00,69.9,15.0,30.14,NNW,339,7.0,13.0,12,0.00,,,0.00,980,WeatherCatV1.15B25,2013-05-26 17:42:00,
2013-05-26 11:47:00,70.1,15.1,30.13,WSW,251,12.0,14.0,12,0.00,,,0.00,984,WeatherCatV1.15B25,2013-05-26 17:47:00,
2013-05-26 11:52:00,69.9,16.8,30.13,NW,325,2.0,6.0,13,0.00,,,0.00,985,WeatherCatV1.15B25,2013-05-26 17:52:00,
2013-05-26 11:57:00,70.8,15.7,30.13,WNW,291,12.0,13.0,12,0.00,,,0.00,998,WeatherCatV1.15B25,2013-05-26 17:57:00,
2013-05-26 12:02:00,70.9,13.8,30.12,SW,217,4.0,17.0,11,0.00,,,0.00,1003,WeatherCatV1.15B25,2013-05-26 18:02:00,
2013-05-26 12:07:00,71.1,13.9,30.12,WNW,295,6.0,12.0,11,0.00,,,0.00,1010,WeatherCatV1.15B25,2013-05-26 18:07:00,
2013-05-26 12:12:00,70.6,15.5,30.12,SSW,208,11.0,11.0,12,0.00,,,0.00,1012,WeatherCatV1.15B25,2013-05-26 18:12:00,
2013-05-26 12:17:00,70.9,11.6,30.12,NNE,31,6.0,10.0,10,0.00,,,0.00,999,WeatherCatV1.15B25,2013-05-26 18:17:00,
2013-05-26 12:22:00,71.3,16.1,30.12,East,99,9.0,9.0,12,0.00,,,0.00,1019,WeatherCatV1.15B25,2013-05-26 18:22:00,
2013-05-26 12:27:00,72.1,18.6,30.12,East,88,7.0,7.0,13,0.00,,,0.00,1036,WeatherCatV1.15B25,2013-05-26 18:27:00,
2013-05-26 12:32:00,73.2,17.6,30.12,NNE,17,0.0,5.0,12,0.00,,,0.00,1045,WeatherCatV1.15B25,2013-05-26 18:32:00,
2013-05-26 12:37:00,73.2,15.6,30.12,SSE,147,2.0,11.0,11,0.00,,,0.00,1049,WeatherCatV1.15B25,2013-05-26 18:37:00,
2013-05-26 12:42:00,73.2,15.6,30.12,ENE,72,10.0,12.0,11,0.00,,,0.00,1059,WeatherCatV1.15B25,2013-05-26 18:42:00,
2013-05-26 12:47:00,73.0,15.4,30.11,SE,141,10.0,17.0,11,0.00,,,0.00,1070,WeatherCatV1.15B25,2013-05-26 18:47:00,
2013-05-26 12:52:00,73.2,15.6,30.11,ESE,107,4.0,11.0,11,0.00,,,0.00,1040,WeatherCatV1.15B25,2013-05-26 18:52:00,
2013-05-26 12:57:00,73.3,17.6,30.11,ESE,109,11.0,22.0,12,0.00,,,0.00,1052,WeatherCatV1.15B25,2013-05-26 18:57:00,
2013-05-26 13:02:00,73.3,15.6,30.10,ESE,107,7.0,18.0,11,0.00,,,0.00,1063,WeatherCatV1.15B25,2013-05-26 19:02:00,
2013-05-26 13:07:00,73.3,15.6,30.10,East,96,6.0,14.0,11,0.00,,,0.00,1091,WeatherCatV1.15B25,2013-05-26 19:07:00,
2013-05-26 13:12:00,72.7,15.2,30.10,ESE,114,9.0,11.0,11,0.00,,,0.00,943,WeatherCatV1.15B25,2013-05-26 19:12:00,
2013-05-26 13:17:00,72.8,15.2,30.10,SE,128,5.0,12.0,11,0.00,,,0.00,1109,WeatherCatV1.15B25,2013-05-26 19:17:00,
2013-05-26 13:22:00,73.9,16.1,30.10,ESE,104,0.0,18.0,11,0.00,,,0.00,1091,WeatherCatV1.15B25,2013-05-26 19:22:00,
2013-05-26 13:27:00,74.4,16.5,30.10,ESE,114,14.0,22.0,11,0.00,,,0.00,1116,WeatherCatV1.15B25,2013-05-26 19:27:00,
2013-05-26 13:32:00,73.5,13.6,30.09,SSE,150,8.0,20.0,10,0.00,,,0.00,1112,WeatherCatV1.15B25,2013-05-26 19:32:00,
2013-05-26 13:37:00,74.2,16.3,30.09,SE,128,17.0,17.0,11,0.00,,,0.00,1013,WeatherCatV1.15B25,2013-05-26 19:37:00,
2013-05-26 13:42:00,73.2,13.4,30.09,SE,136,12.0,17.0,10,0.00,,,0.00,794,WeatherCatV1.15B25,2013-05-26 19:42:00,
2013-05-26 13:47:00,72.7,13.0,30.09,SSE,148,0.0,6.0,10,0.00,,,0.00,860,WeatherCatV1.15B25,2013-05-26 19:47:00,
2013-05-26 13:52:00,72.8,13.1,30.09,SSE,150,6.0,13.0,10,0.00,,,0.00,612,WeatherCatV1.15B25,2013-05-26 19:52:00,
2013-05-26 13:57:00,73.0,15.4,30.09,East,90,8.0,13.0,11,0.00,,,0.00,679,WeatherCatV1.15B25,2013-05-26 19:57:00,
2013-05-26 14:02:00,73.3,15.6,30.08,East,89,2.0,5.0,11,0.00,,,0.00,633,WeatherCatV1.15B25,2013-05-26 20:02:00,
2013-05-26 14:07:00,73.2,13.4,30.08,SE,145,10.0,17.0,10,0.00,,,0.00,505,WeatherCatV1.15B25,2013-05-26 20:07:00,
2013-05-26 14:12:00,73.0,10.9,30.08,SW,216,14.0,16.0,9,0.00,,,0.00,913,WeatherCatV1.15B25,2013-05-26 20:12:00,
2013-05-26 14:17:00,73.2,13.4,30.08,SSW,209,10.0,16.0,10,0.00,,,0.00,778,WeatherCatV1.15B25,2013-05-26 20:17:00,
2013-05-26 14:22:00,73.3,11.1,30.08,South,184,11.0,11.0,9,0.00,,,0.00,783,WeatherCatV1.15B25,2013-05-26 20:22:00,
2013-05-26 14:27:00,73.9,11.5,30.08,SSE,165,12.0,19.0,9,0.00,,,0.00,748,WeatherCatV1.15B25,2013-05-26 20:27:00,
2013-05-26 14:32:00,73.2,11.0,30.08,South,169,6.0,17.0,9,0.00,,,0.00,540,WeatherCatV1.15B25,2013-05-26 20:32:00,
2013-05-26 14:37:00,73.5,11.2,30.08,South,185,0.0,6.0,9,0.00,,,0.00,764,WeatherCatV1.15B25,2013-05-26 20:37:00,
2013-05-26 14:42:00,73.9,16.1,30.08,ESE,116,7.0,15.0,11,0.00,,,0.00,890,WeatherCatV1.15B25,2013-05-26 20:42:00,
2013-05-26 14:47:00,74.4,11.9,30.08,ESE,113,1.0,2.0,9,0.00,,,0.00,903,WeatherCatV1.15B25,2013-05-26 20:47:00,
2013-05-26 14:52:00,74.7,12.1,30.08,SE,130,19.0,19.0,9,0.00,,,0.00,852,WeatherCatV1.15B25,2013-05-26 20:52:00,
2013-05-26 14:57:00,74.6,12.1,30.08,SSE,152,11.0,11.0,9,0.00,,,0.00,667,WeatherCatV1.15B25,2013-05-26 20:57:00,
2013-05-26 15:02:00,75.1,14.8,30.07,SSE,155,9.0,11.0,10,0.00,,,0.00,832,WeatherCatV1.15B25,2013-05-26 21:02:00,
2013-05-26 15:07:00,75.3,9.9,30.07,WNW,289,10.0,16.0,8,0.00,,,0.00,832,WeatherCatV1.15B25,2013-05-26 21:07:00,
2013-05-26 15:12:00,75.3,9.9,30.07,SW,223,1.0,8.0,8,0.00,,,0.00,973,WeatherCatV1.15B25,2013-05-26 21:12:00,
2013-05-26 15:17:00,75.1,12.4,30.07,ESE,117,0.0,11.0,9,0.00,,,0.00,697,WeatherCatV1.15B25,2013-05-26 21:17:00,
2013-05-26 15:22:00,75.4,10.0,30.07,SE,141,2.0,14.0,8,0.00,,,0.00,917,WeatherCatV1.15B25,2013-05-26 21:22:00,
2013-05-26 15:27:00,75.4,7.1,30.07,West,267,3.0,11.0,7,0.00,,,0.00,882,WeatherCatV1.15B25,2013-05-26 21:27:00,
2013-05-26 15:32:00,75.4,10.0,30.06,West,271,10.0,16.0,8,0.00,,,0.00,841,WeatherCatV1.15B25,2013-05-26 21:32:00,
2013-05-26 15:37:00,75.3,7.0,30.06,SE,136,3.0,13.0,7,0.00,,,0.00,665,WeatherCatV1.15B25,2013-05-26 21:37:00,
2013-05-26 15:42:00,75.1,6.8,30.06,SSW,208,16.0,24.0,7,0.00,,,0.00,538,WeatherCatV1.15B25,2013-05-26 21:42:00,
2013-05-26 15:47:00,73.9,8.9,30.06,NW,309,11.0,13.0,8,0.00,,,0.00,456,WeatherCatV1.15B25,2013-05-26 21:47:00,
2013-05-26 15:52:00,73.9,8.9,30.06,SSE,158,0.0,5.0,8,0.00,,,0.00,301,WeatherCatV1.15B25,2013-05-26 21:52:00,
2013-05-26 15:57:00,73.2,13.4,30.06,South,189,0.0,6.0,10,0.00,,,0.00,623,WeatherCatV1.15B25,2013-05-26 21:57:00,
2013-05-26 16:02:00,73.5,11.2,30.06,NW,306,5.0,6.0,9,0.00,,,0.00,310,WeatherCatV1.15B25,2013-05-26 22:02:00,
2013-05-26 16:07:00,73.2,11.0,30.06,SSE,148,9.0,9.0,9,0.00,,,0.00,310,WeatherCatV1.15B25,2013-05-26 22:07:00,
2013-05-26 16:12:00,72.8,8.1,30.06,SW,226,3.0,8.0,8,0.00,,,0.00,266,WeatherCatV1.15B25,2013-05-26 22:12:00,
2013-05-26 16:17:00,72.3,7.7,30.06,SSW,202,12.0,16.0,8,0.00,,,0.00,287,WeatherCatV1.15B25,2013-05-26 22:17:00,
2013-05-26 16:22:00,71.8,10.0,30.06,South,174,11.0,11.0,9,0.00,,,0.00,324,WeatherCatV1.15B25,2013-05-26 22:22:00,
2013-05-26 16:27:00,72.5,7.9,30.06,South,188,2.0,11.0,8,0.00,,,0.00,285,WeatherCatV1.15B25,2013-05-26 22:27:00,
2013-05-26 16:32:00,73.0,8.2,30.05,SE,145,6.0,12.0,8,0.00,,,0.00,289,WeatherCatV1.15B25,2013-05-26 22:32:00,
2013-05-26 16:37:00,73.5,11.2,30.05,South,181,9.0,16.0,9,0.00,,,0.00,593,WeatherCatV1.15B25,2013-05-26 22:37:00,
2013-05-26 16:42:00,74.0,14.0,30.05,SW,215,10.0,14.0,10,0.00,,,0.00,456,WeatherCatV1.15B25,2013-05-26 22:42:00,
2013-05-26 16:47:00,74.2,14.1,30.05,West,278,11.0,13.0,10,0.00,,,0.00,637,WeatherCatV1.15B25,2013-05-26 22:47:00,
2013-05-26 16:52:00,74.2,11.8,30.05,WSW,246,0.0,12.0,9,0.00,,,0.00,637,WeatherCatV1.15B25,2013-05-26 22:52:00,
2013-05-26 16:57:00,74.6,12.1,30.05,WSW,258,7.0,12.0,9,0.00,,,0.00,516,WeatherCatV1.15B25,2013-05-26 22:57:00,
2013-05-26 17:02:00,74.2,14.1,30.05,WNW,302,5.0,11.0,10,0.00,,,0.00,442,WeatherCatV1.15B25,2013-05-26 23:02:00,
2013-05-26 17:07:00,73.9,13.9,30.05,South,178,0.0,6.0,10,0.00,,,0.00,436,WeatherCatV1.15B25,2013-05-26 23:07:00,
2013-05-26 17:12:00,74.0,14.0,30.05,SSW,198,7.0,18.0,10,0.00,,,0.00,648,WeatherCatV1.15B25,2013-05-26 23:12:00,
2013-05-26 17:17:00,74.2,16.3,30.05,SW,236,11.0,18.0,11,0.00,,,0.00,653,WeatherCatV1.15B25,2013-05-26 23:17:00,
2013-05-26 17:22:00,73.9,13.9,30.05,West,281,0.0,18.0,10,0.00,,,0.00,653,WeatherCatV1.15B25,2013-05-26 23:22:00,
2013-05-26 17:27:00,74.0,14.0,30.05,West,270,5.0,17.0,10,0.00,,,0.00,570,WeatherCatV1.15B25,2013-05-26 23:27:00,
2013-05-26 17:32:00,74.0,14.0,30.05,WNW,295,18.0,22.0,10,0.00,,,0.00,417,WeatherCatV1.15B25,2013-05-26 23:32:00,
2013-05-26 17:37:00,73.9,13.9,30.05,SW,230,12.0,16.0,10,0.00,,,0.00,401,WeatherCatV1.15B25,2013-05-26 23:37:00,
2013-05-26 17:42:00,72.8,15.2,30.05,West,277,6.0,17.0,11,0.00,,,0.00,401,WeatherCatV1.15B25,2013-05-26 23:42:00,
2013-05-26 17:47:00,72.8,13.1,30.05,WNW,284,7.0,19.0,10,0.00,,,0.00,440,WeatherCatV1.15B25,2013-05-26 23:47:00,
2013-05-26 17:52:00,72.8,13.1,30.05,WSW,248,13.0,16.0,10,0.00,,,0.00,443,WeatherCatV1.15B25,2013-05-26 23:52:00,
2013-05-26 17:57:00,73.2,15.6,30.05,West,278,6.0,11.0,11,0.00,,,0.00,436,WeatherCatV1.15B25,2013-05-26 23:57:00,
2013-05-26 18:02:00,73.7,15.9,30.05,North,356,7.0,7.0,11,0.00,,,0.00,413,WeatherCatV1.15B25,2013-05-27 00:02:00,
2013-05-26 18:07:00,73.3,15.6,30.05,WSW,240,8.0,17.0,11,0.00,,,0.00,394,WeatherCatV1.15B25,2013-05-27 00:07:00,
2013-05-26 18:12:00,73.0,17.4,30.05,West,264,6.0,12.0,12,0.00,,,0.00,345,WeatherCatV1.15B25,2013-05-27 00:12:00,
2013-05-26 18:17:00,72.5,15.0,30.05,West,263,10.0,16.0,11,0.00,,,0.00,354,WeatherCatV1.15B25,2013-05-27 00:17:00,
2013-05-26 18:22:00,72.0,18.5,30.05,WSW,256,1.0,7.0,13,0.00,,,0.00,327,WeatherCatV1.15B25,2013-05-27 00:22:00,
2013-05-26 18:27:00,72.1,16.7,30.05,NW,308,7.0,10.0,12,0.00,,,0.00,313,WeatherCatV1.15B25,2013-05-27 00:27:00,
2013-05-26 18:32:00,72.1,16.7,30.05,West,281,1.0,8.0,12,0.00,,,0.00,289,WeatherCatV1.15B25,2013-05-27 00:32:00,
2013-05-26 18:37:00,71.8,16.5,30.05,SSW,209,13.0,13.0,12,0.00,,,0.00,273,WeatherCatV1.15B25,2013-05-27 00:37:00,
2013-05-26 18:42:00,71.5,16.2,30.05,WSW,253,0.0,12.0,12,0.00,,,0.00,255,WeatherCatV1.15B25,2013-05-27 00:42:00,
2013-05-26 18:47:00,71.5,18.1,30.05,NW,316,8.0,12.0,13,0.00,,,0.00,236,WeatherCatV1.15B25,2013-05-27 00:47:00,
2013-05-26 18:52:00,71.3,17.9,30.05,West,270,10.0,16.0,13,0.00,,,0.00,220,WeatherCatV1.15B25,2013-05-27 00:52:00,
2013-05-26 18:57:00,70.6,17.4,30.05,WNW,288,8.0,16.0,13,0.00,,,0.00,201,WeatherCatV1.15B25,2013-05-27 00:57:00,
2013-05-26 19:02:00,70.4,17.2,30.05,NW,323,5.0,6.0,13,0.00,,,0.00,185,WeatherCatV1.15B25,2013-05-27 01:02:00,
2013-05-26 19:07:00,70.4,17.2,30.05,WNW,291,11.0,11.0,13,0.00,,,0.00,171,WeatherCatV1.15B25,2013-05-27 01:07:00,
2013-05-26 19:12:00,69.9,16.8,30.05,West,267,3.0,6.0,13,0.00,,,0.00,30,WeatherCatV1.15B25,2013-05-27 01:12:00,
2013-05-26 19:17:00,68.9,16.0,30.05,WNW,298,8.0,13.0,13,0.00,,,0.00,28,WeatherCatV1.15B25,2013-05-27 01:17:00,
2013-05-26 19:22:00,68.1,17.1,30.05,WNW,288,13.0,16.0,14,0.00,,,0.00,26,WeatherCatV1.15B25,2013-05-27 01:22:00,
2013-05-26 19:27:00,67.6,15.0,30.05,WNW,282,3.0,15.0,13,0.00,,,0.00,25,WeatherCatV1.15B25,2013-05-27 01:27:00,
2013-05-26 19:32:00,67.3,16.5,30.05,WSW,244,7.0,12.0,14,0.00,,,0.00,23,WeatherCatV1.15B25,2013-05-27 01:32:00,
2013-05-26 19:37:00,67.1,16.3,30.05,West,277,6.0,10.0,14,0.00,,,0.00,23,WeatherCatV1.15B25,2013-05-27 01:37:00,
2013-05-26 19:42:00,66.8,16.1,30.05,West,260,2.0,7.0,14,0.00,,,0.00,21,WeatherCatV1.15B25,2013-05-27 01:42:00,
2013-05-26 19:47:00,66.4,17.4,30.06,West,270,8.0,10.0,15,0.00,,,0.00,18,WeatherCatV1.15B25,2013-05-27 01:47:00,
2013-05-26 19:52:00,66.1,17.1,30.06,WNW,285,2.0,5.0,15,0.00,,,0.00,16,WeatherCatV1.15B25,2013-05-27 01:52:00,
2013-05-26 19:57:00,65.6,16.7,30.06,NW,323,4.0,10.0,15,0.00,,,0.00,16,WeatherCatV1.15B25,2013-05-27 01:57:00,
2013-05-26 20:02:00,65.2,17.9,30.06,West,271,0.0,1.0,16,0.00,,,0.00,14,WeatherCatV1.15B25,2013-05-27 02:02:00,
2013-05-26 20:07:00,64.3,18.6,30.06,NNW,340,0.0,10.0,17,0.00,,,0.00,12,WeatherCatV1.15B25,2013-05-27 02:07:00,
2013-05-26 20:12:00,63.4,17.8,30.06,NNW,340,2.0,5.0,17,0.00,,,0.00,9,WeatherCatV1.15B25,2013-05-27 02:12:00,
2013-05-26 20:17:00,62.7,17.3,30.07,NNW,340,1.0,2.0,17,0.00,,,0.00,7,WeatherCatV1.15B25,2013-05-27 02:17:00,
2013-05-26 20:22:00,61.8,17.9,30.07,NNW,328,5.0,6.0,18,0.00,,,0.00,5,WeatherCatV1.15B25,2013-05-27 02:22:00,
2013-05-26 20:27:00,61.5,17.6,30.07,NW,306,5.0,8.0,18,0.00,,,0.00,0,WeatherCatV1.15B25,2013-05-27 02:27:00,
2013-05-26 20:32:00,61.6,17.7,30.07,WNW,301,2.0,5.0,18,0.00,,,0.00,0,WeatherCatV1.15B25,2013-05-27 02:32:00,
2013-05-26 20:37:00,61.3,17.5,30.07,WNW,301,6.0,6.0,18,0.00,,,0.00,0,WeatherCatV1.15B25,2013-05-27 02:37:00,
2013-05-26 20:42:00,61.0,17.2,30.07,WNW,298,9.0,9.0,18,0.00,,,0.00,0,WeatherCatV1.15B25,2013-05-27 02:42:00,
2013-05-26 20:47:00,60.9,17.1,30.08,WNW,291,4.0,7.0,18,0.00,,,0.00,0,WeatherCatV1.15B25,2013-05-27 02:47:00,
2013-05-26 20:52:00,60.9,17.1,30.08,WNW,295,5.0,6.0,18,0.00,,,0.00,0,WeatherCatV1.15B25,2013-05-27 02:52:00,
2013-05-26 20:57:00,60.7,18.2,30.08,WNW,291,4.0,6.0,19,0.00,,,0.00,0,WeatherCatV1.15B25,2013-05-27 02:57:00,
2013-05-26 21:02:00,60.4,18.0,30.09,NW,304,6.0,10.0,19,0.00,,,0.00,0,WeatherCatV1.15B25,2013-05-27 03:02:00,
2013-05-26 21:07:00,60.1,17.7,30.09,NW,308,1.0,6.0,19,0.00,,,0.00,0,WeatherCatV1.15B25,2013-05-27 03:07:00,
2013-05-26 21:12:00,59.6,17.3,30.09,NW,313,8.0,8.0,19,0.00,,,0.00,0,WeatherCatV1.15B25,2013-05-27 03:12:00,
2013-05-26 21:17:00,59.2,18.2,30.09,NNW,332,5.0,8.0,20,0.00,,,0.00,0,WeatherCatV1.15B25,2013-05-27 03:17:00,
2013-05-26 21:22:00,58.9,17.9,30.09,NW,308,5.0,6.0,20,0.00,,,0.00,0,WeatherCatV1.15B25,2013-05-27 03:22:00,
2013-05-26 21:27:00,58.9,17.9,30.09,West,267,4.0,8.0,20,0.00,,,0.00,0,WeatherCatV1.15B25,2013-05-27 03:27:00,
2013-05-26 21:32:00,58.9,17.9,30.10,NW,305,9.0,10.0,20,0.00,,,0.00,0,WeatherCatV1.15B25,2013-05-27 03:32:00,
2013-05-26 21:37:00,58.9,17.9,30.10,NW,305,7.0,8.0,20,0.00,,,0.00,0,WeatherCatV1.15B25,2013-05-27 03:37:00,
2013-05-26 21:42:00,58.7,16.6,30.10,NW,308,3.0,7.0,19,0.00,,,0.00,0,WeatherCatV1.15B25,2013-05-27 03:42:00,
2013-05-26 21:47:00,58.4,17.5,30.11,West,281,0.0,8.0,20,0.00,,,0.00,0,WeatherCatV1.15B25,2013-05-27 03:47:00,
2013-05-26 21:52:00,58.1,17.3,30.11,West,281,2.0,6.0,20,0.00,,,0.00,0,WeatherCatV1.15B25,2013-05-27 03:52:00,
2013-05-26 21:57:00,57.8,17.0,30.11,West,264,3.0,8.0,20,0.00,,,0.00,0,WeatherCatV1.15B25,2013-05-27 03:57:00,
2013-05-26 22:01:00,57.8,17.0,30.12,WNW,301,2.0,11.0,20,0.00,,,0.00,0,WeatherCatV1.15B25,2013-05-27 04:01:00,
2013-05-26 22:05:00,57.8,17.0,30.12,West,278,4.0,11.0,20,0.00,,,0.00,0,WeatherCatV1.15B25,2013-05-27 04:05:00,
2013-05-26 22:06:00,57.5,16.8,30.12,NW,305,2.0,9.0,20,0.00,,,0.00,0,WeatherCatV1.15B25,2013-05-27 04:06:00,
2013-05-26 22:10:00,57.5,16.8,30.12,WNW,295,5.0,9.0,20,0.00,,,0.00,0,WeatherCatV1.15B25,2013-05-27 04:10:00,
2013-05-26 22:15:00,57.5,16.8,30.12,WNW,295,5.0,9.0,20,0.00,,,0.00,0,WeatherCatV1.15B25,2013-05-27 04:15:00,
2013-05-26 22:20:00,57.0,16.3,30.12,NW,315,5.0,10.0,20,0.00,,,0.00,0,WeatherCatV1.15B25,2013-05-27 04:20:00,
2013-05-26 22:25:00,57.0,16.3,30.12,NW,315,5.0,10.0,20,0.00,,,0.00,0,WeatherCatV1.15B25,2013-05-27 04:25:00,
2013-05-26 22:30:00,57.0,16.3,30.12,NW,315,5.0,10.0,20,0.00,,,0.00,0,WeatherCatV1.15B25,2013-05-27 04:30:00,
2013-05-26 22:35:00,56.7,16.1,30.13,WNW,292,7.0,13.0,20,0.00,,,0.00,0,WeatherCatV1.15B25,2013-05-27 04:35:00,
2013-05-26 22:40:00,56.7,16.1,30.13,WNW,292,7.0,13.0,20,0.00,,,0.00,0,WeatherCatV1.15B25,2013-05-27 04:40:00,
2013-05-26 22:45:00,56.7,16.1,30.13,WNW,292,7.0,13.0,20,0.00,,,0.00,0,WeatherCatV1.15B25,2013-05-27 04:45:00,
2013-05-26 22:50:00,56.2,17.9,30.13,WNW,292,8.0,11.0,22,0.00,,,0.00,0,WeatherCatV1.15B25,2013-05-27 04:50:00,
2013-05-26 22:55:00,56.2,17.9,30.13,WNW,292,8.0,11.0,22,0.00,,,0.00,0,WeatherCatV1.15B25,2013-05-27 04:55:00,
2013-05-26 23:00:00,56.2,17.9,30.13,WNW,292,8.0,11.0,22,0.00,,,0.00,0,WeatherCatV1.15B25,2013-05-27 05:00:00,
2013-05-26 23:05:00,54.7,16.6,30.13,NW,315,9.0,14.0,22,0.00,,,0.00,0,WeatherCatV1.15B25,2013-05-27 05:05:00,
2013-05-26 23:10:00,54.7,16.6,30.13,NW,315,9.0,14.0,22,0.00,,,0.00,0,WeatherCatV1.15B25,2013-05-27 05:10:00,
2013-05-26 23:15:00,54.7,16.6,30.13,NW,315,9.0,14.0,22,0.00,,,0.00,0,WeatherCatV1.15B25,2013-05-27 05:15:00,
2013-05-26 23:20:00,53.6,16.7,30.14,NW,315,9.0,13.0,23,0.00,,,0.00,0,WeatherCatV1.15B25,2013-05-27 05:20:00,
2013-05-26 23:25:00,53.6,16.7,30.14,NW,315,9.0,13.0,23,0.00,,,0.00,0,WeatherCatV1.15B25,2013-05-27 05:25:00,
2013-05-26 23:30:00,53.6,16.7,30.14,NW,315,9.0,13.0,23,0.00,,,0.00,0,WeatherCatV1.15B25,2013-05-27 05:30:00,
2013-05-26 23:35:00,53.1,16.3,30.14,NW,315,9.0,13.0,23,0.00,,,0.00,0,WeatherCatV1.15B25,2013-05-27 05:35:00,
2013-05-26 23:40:00,53.1,16.3,30.14,NW,315,9.0,13.0,23,0.00,,,0.00,0,WeatherCatV1.15B25,2013-05-27 05:40:00,
2013-05-26 23:45:00,53.1,16.3,30.14,NW,315,9.0,13.0,23,0.00,,,0.00,0,WeatherCatV1.15B25,2013-05-27 05:45:00,
2013-05-26 23:50:00,52.2,16.5,30.14,WNW,292,9.0,14.0,24,0.00,,,0.00,0,WeatherCatV1.15B25,2013-05-27 05:50:00,
2013-05-26 23:55:00,52.2,16.5,30.14,WNW,292,9.0,14.0,24,0.00,,,0.00,0,WeatherCatV1.15B25,2013-05-27 05:55:00,